APL Denmark — A8JX9 — position and weather

sailwx.info

Track history (hours):
 
Tides and Currents Weather Stations Pressure Air Temp Water Temp Dewpoint Dewpoint Depression Visibility Wind Speed Wind Dir Waves Ship Positions

APL Denmark

Last reported at 2016-May-05 23:32 UTC. Time now 2016-May-05 23:49 UTC.
Position N 29°55' W 090°07'.

Length 277 m; beam 40 m; draft 14 m.

Type: Ship. MMSI: 636091157.

Date/timePositionNaut miles runAvg speedWind from/ knotsBaromVisibWave heightAir tempDewpointWater temp
2016-May-05 23:32N 29°55' W 090°07'0 0.0
2016-May-05 22:31N 29°55' W 090°07'0 0.0
2016-May-05 21:32N 29°55' W 090°07'0 0.0
2016-May-05 20:32N 29°55' W 090°07'0 0.0
2016-May-05 19:29N 29°55' W 090°07'0 0.0
2016-May-05 18:32N 29°55' W 090°07'0 0.0
2016-May-05 17:29N 29°55' W 090°07'0 0.0
2016-May-05 16:32N 29°55' W 090°07'0 0.0
2016-May-05 15:32N 29°55' W 090°07'0 0.0
2016-May-05 14:32N 29°55' W 090°07'0 0.0
2016-May-05 13:31N 29°55' W 090°07'0 0.0
2016-May-05 12:31N 29°55' W 090°07'0 0.0
2016-May-05 11:32N 29°55' W 090°07'0 0.0
2016-May-05 10:31N 29°55' W 090°07'3 3.4
2016-May-05 09:33N 29°57' W 090°03'7 7.0
2016-May-05 08:33N 29°55' W 089°56'8 7.5
2016-May-05 07:33N 29°49' W 090°00'10 9.8
2016-May-05 06:34N 29°39' W 089°57'252 7.6
2016-May-03 21:14N 29°21' W 094°46'912.4
2016-May-03 20:33N 29°28' W 094°51'1211.8
2016-May-03 19:34N 29°38' W 094°58'3 1.4
2016-May-03 17:29N 29°41' W 094°60'0 0.0
2016-May-03 15:29N 29°41' W 094°60'0 0.0
2016-May-03 14:29N 29°41' W 094°60'0 0.0
2016-May-03 13:26N 29°41' W 094°60'0 0.0
2016-May-03 12:20N 29°41' W 094°60'0 0.0
2016-May-03 11:26N 29°41' W 094°60'0 0.0
2016-May-03 10:14N 29°41' W 094°60'0 0.0
2016-May-03 09:32N 29°41' W 094°60'0 0.0
2016-May-03 08:23N 29°41' W 094°60'0 0.0
2016-May-03 07:17N 29°41' W 094°60'0 0.0
2016-May-03 06:26N 29°41' W 094°60'0 0.0
2016-May-03 05:23N 29°41' W 094°60'0 0.0
2016-May-03 03:17N 29°41' W 094°60'0 0.0
2016-May-03 02:08N 29°41' W 094°60'0 0.0
2016-May-03 00:26N 29°41' W 094°60'0 0.0
2016-May-02 20:32N 29°41' W 094°60'3 2.5
2016-May-02 19:31N 29°39' W 094°58'1212.1
2016-May-02 18:30N 29°28' W 094°51'  
2016-Apr-30 13:12N 20°48' W 096°40'6622.0
2016-Apr-30 10:13N 19°49' W 096°11'2023.1
2016-Apr-30 09:22N 19°30' W 096°02'1620.2
2016-Apr-30 08:33N 19°15' W 095°58'10 9.8
2016-Apr-30 07:33N 19°12' W 096°08'0 0.4
2016-Apr-30 06:33N 19°13' W 096°08'0 0.0
2016-Apr-30 05:27N 19°13' W 096°08'0 0.0
2016-Apr-30 04:33N 19°13' W 096°08'0 0.0
2016-Apr-30 03:33N 19°13' W 096°08'0 0.0
2016-Apr-30 02:33N 19°13' W 096°08'0 0.0
2016-Apr-30 01:33N 19°13' W 096°08'0 0.0
2016-Apr-30 00:33N 19°13' W 096°08'0 0.0
2016-Apr-29 23:33N 19°13' W 096°08'0 0.0
2016-Apr-29 22:33N 19°13' W 096°08'0 0.0
2016-Apr-29 21:33N 19°13' W 096°08'0 0.0
2016-Apr-29 20:33N 19°13' W 096°08'0 0.0
2016-Apr-29 19:33N 19°13' W 096°08'0 0.0
2016-Apr-29 18:33N 19°13' W 096°08'0 0.0
2016-Apr-29 17:33N 19°13' W 096°08'0 0.0
2016-Apr-29 16:30N 19°13' W 096°08'0 0.0
2016-Apr-29 15:33N 19°13' W 096°08'0 0.0
2016-Apr-29 14:33N 19°13' W 096°08'0 0.0
2016-Apr-29 13:33N 19°13' W 096°08'1 0.5
2016-Apr-29 12:33N 19°12' W 096°08'8 7.7
2016-Apr-29 11:33N 19°13' W 095°60'4 3.6
2016-Apr-29 10:33N 19°15' W 095°57'2 1.7
2016-Apr-29 09:33N 19°14' W 095°55'7 6.7
2016-Apr-29 08:33N 19°15' W 095°48'1010.4
2016-Apr-29 07:33N 19°18' W 095°38'1111.0
2016-Apr-29 06:33N 19°25' W 095°28'1111.3
2016-Apr-29 05:33N 19°31' W 095°18'1111.5
2016-Apr-29 04:33N 19°37' W 095°08'1111.5
2016-Apr-29 03:34N 19°43' W 094°58'1111.4
2016-Apr-29 02:33N 19°48' W 094°47'1211.5
2016-Apr-29 01:33N 19°54' W 094°37'40011.6
2016-Apr-27 15:00N 21°54' W 087°48'11914.9 110 / 101010.010.8 1.026.825.3
2016-Apr-27 07:00N 21°12' W 085°48'14813.5 130 / 121010.210.8 1.526.223.130.0
2016-Apr-26 20:00N 19°24' W 084°00'7414.9 110 / 101011.210.8 1.029.024.730.0
2016-Apr-26 15:00N 18°36' W 083°00'   090 / 101011.210.8 0.530.025.6
Track history (hours):
 
Tides and Currents Weather Stations Pressure Air Temp Water Temp Dewpoint Dewpoint Depression Visibility Wind Speed Wind Dir Waves Ship Positions

APL Denmark

Last reported at 2016-May-05 23:32 UTC. Time now 2016-May-05 23:49 UTC.
Position N 29°55' W 090°07'.

Length 277 m; beam 40 m; draft 14 m.

Type: Ship. MMSI: 636091157.

Date/timePositionNaut miles runAvg speedWind from/ knotsBaromVisibWave heightAir tempDewpointWater temp
2016-May-05 23:32N 29°55' W 090°07'0 0.0
2016-May-05 22:31N 29°55' W 090°07'0 0.0
2016-May-05 21:32N 29°55' W 090°07'0 0.0
2016-May-05 20:32N 29°55' W 090°07'0 0.0
2016-May-05 19:29N 29°55' W 090°07'0 0.0
2016-May-05 18:32N 29°55' W 090°07'0 0.0
2016-May-05 17:29N 29°55' W 090°07'0 0.0
2016-May-05 16:32N 29°55' W 090°07'0 0.0
2016-May-05 15:32N 29°55' W 090°07'0 0.0
2016-May-05 14:32N 29°55' W 090°07'0 0.0
2016-May-05 13:31N 29°55' W 090°07'0 0.0
2016-May-05 12:31N 29°55' W 090°07'0 0.0
2016-May-05 11:32N 29°55' W 090°07'0 0.0
2016-May-05 10:31N 29°55' W 090°07'3 3.4
2016-May-05 09:33N 29°57' W 090°03'7 7.0
2016-May-05 08:33N 29°55' W 089°56'8 7.5
2016-May-05 07:33N 29°49' W 090°00'10 9.8
2016-May-05 06:34N 29°39' W 089°57'252 7.6
2016-May-03 21:14N 29°21' W 094°46'912.4
2016-May-03 20:33N 29°28' W 094°51'1211.8
2016-May-03 19:34N 29°38' W 094°58'3 1.4
2016-May-03 17:29N 29°41' W 094°60'0 0.0
2016-May-03 15:29N 29°41' W 094°60'0 0.0
2016-May-03 14:29N 29°41' W 094°60'0 0.0
2016-May-03 13:26N 29°41' W 094°60'0 0.0
2016-May-03 12:20N 29°41' W 094°60'0 0.0
2016-May-03 11:26N 29°41' W 094°60'0 0.0
2016-May-03 10:14N 29°41' W 094°60'0 0.0
2016-May-03 09:32N 29°41' W 094°60'0 0.0
2016-May-03 08:23N 29°41' W 094°60'0 0.0
2016-May-03 07:17N 29°41' W 094°60'0 0.0
2016-May-03 06:26N 29°41' W 094°60'0 0.0
2016-May-03 05:23N 29°41' W 094°60'0 0.0
2016-May-03 03:17N 29°41' W 094°60'0 0.0
2016-May-03 02:08N 29°41' W 094°60'0 0.0
2016-May-03 00:26N 29°41' W 094°60'0 0.0
2016-May-02 20:32N 29°41' W 094°60'3 2.5
2016-May-02 19:31N 29°39' W 094°58'1212.1
2016-May-02 18:30N 29°28' W 094°51'  
2016-Apr-30 13:12N 20°48' W 096°40'6622.0
2016-Apr-30 10:13N 19°49' W 096°11'2023.1
2016-Apr-30 09:22N 19°30' W 096°02'1620.2
2016-Apr-30 08:33N 19°15' W 095°58'10 9.8
2016-Apr-30 07:33N 19°12' W 096°08'0 0.4
2016-Apr-30 06:33N 19°13' W 096°08'0 0.0
2016-Apr-30 05:27N 19°13' W 096°08'0 0.0
2016-Apr-30 04:33N 19°13' W 096°08'0 0.0
2016-Apr-30 03:33N 19°13' W 096°08'0 0.0
2016-Apr-30 02:33N 19°13' W 096°08'0 0.0
2016-Apr-30 01:33N 19°13' W 096°08'0 0.0
2016-Apr-30 00:33N 19°13' W 096°08'0 0.0
2016-Apr-29 23:33N 19°13' W 096°08'0 0.0
2016-Apr-29 22:33N 19°13' W 096°08'0 0.0
2016-Apr-29 21:33N 19°13' W 096°08'0 0.0
2016-Apr-29 20:33N 19°13' W 096°08'0 0.0
2016-Apr-29 19:33N 19°13' W 096°08'0 0.0
2016-Apr-29 18:33N 19°13' W 096°08'0 0.0
2016-Apr-29 17:33N 19°13' W 096°08'0 0.0
2016-Apr-29 16:30N 19°13' W 096°08'0 0.0
2016-Apr-29 15:33N 19°13' W 096°08'0 0.0
2016-Apr-29 14:33N 19°13' W 096°08'0 0.0
2016-Apr-29 13:33N 19°13' W 096°08'1 0.5
2016-Apr-29 12:33N 19°12' W 096°08'8 7.7
2016-Apr-29 11:33N 19°13' W 095°60'4 3.6
2016-Apr-29 10:33N 19°15' W 095°57'2 1.7
2016-Apr-29 09:33N 19°14' W 095°55'7 6.7
2016-Apr-29 08:33N 19°15' W 095°48'1010.4
2016-Apr-29 07:33N 19°18' W 095°38'1111.0
2016-Apr-29 06:33N 19°25' W 095°28'1111.3
2016-Apr-29 05:33N 19°31' W 095°18'1111.5
2016-Apr-29 04:33N 19°37' W 095°08'1111.5
2016-Apr-29 03:34N 19°43' W 094°58'1111.4
2016-Apr-29 02:33N 19°48' W 094°47'1211.5
2016-Apr-29 01:33N 19°54' W 094°37'40011.6
2016-Apr-27 15:00N 21°54' W 087°48'11914.9 110 / 101010.010.8 1.026.825.3
2016-Apr-27 07:00N 21°12' W 085°48'14813.5 130 / 121010.210.8 1.526.223.130.0
2016-Apr-26 20:00N 19°24' W 084°00'7414.9 110 / 101011.210.8 1.029.024.730.0
2016-Apr-26 15:00N 18°36' W 083°00'   090 / 101011.210.8 0.530.025.6

Dump ship's entire track history